Aviation Digital Data Service (ADDS)

Output produced by METARs form (1639 UTC 22 September 2019)
found at http://www.aviationweather.gov/metar/data/
 
KTUS 221129Z 2212/2312 15007KT P6SM SCT090 
     FM222000 25008KT P6SM SCT070 BKN200 
     FM222300 17008KT P6SM SCT060 BKN200